Keene, CA

4:12 PM PDT on September 20, 2014 (GMT -0700)
Deer Creek, Hart Flat, CA, US | Change Station
CLOSE
Current Station
Personal Weather Station
Location: Keene, CA
Elevation: 2854 ft
Nearby Weather Stations

Elev 2854 ft 35.25 °N, 118.61 °W | Updated 1 minute ago

Clear
Clear
77.9 °F
Feels Like 79 °F
N
3.0
Wind Variable Wind from NW
Gusts 8.0 mph

Today
High -- | Low -- °F
--% Chance of Precip.
Yesterday
High -- | Low -- °F
Precip. -- in
6:41 AM 6:53 PM
Waning Crescent, 10% visible
Pressure 30.00 in
Visibility 10.0 miles
Clouds Scattered Clouds 11000 ft
Heat Index 79 °F
Dew Point 55 °F
Humidity 45%
Rainfall 0.00 in
Snow Depth 0 in , 0 in , 0 in
UV 0.0 out of 12
Pollen 7.10 out of 12
PM2.5 Good
Flu Activity Not available.
METAR KTSP 202255Z AUTO 32012G17KT 10SM SCT110 25/11 A3000 RMK AO2

More Conditions Fewer Conditions

Pressure 30.00 in
Visibility 10.0 miles
Clouds Scattered Clouds 11000 ft
Heat Index 79 °F
Dew Point 55 °F
Humidity 45%
Rainfall 0.00 in
Snow Depth 0 in , 0 in , 0 in
UV 0.0 out of 12
Pollen 7.10 out of 12
PM2.5 Good
Flu Activity Not available.
METAR KTSP 202255Z AUTO 32012G17KT 10SM SCT110 25/11 A3000 RMK AO2

More Conditions Fewer Conditions

10-Day Weather Forecast

Almanac

Astronomy

Sep. 20, 2014 Rise Set
Actual Time 6:41 AM PDT 6:53 PM PDT
Civil Twilight 6:15 AM PDT 7:19 PM PDT
Nautical Twilight 5:45 AM PDT 7:48 PM PDT
Astronomical Twilight 5:15 AM PDT 8:18 PM PDT
Moon 3:30 AM PDT 4:55 PM PDT
Length of Visible Light 13h 03m
Length of Day
12h 12m
Tomorrow will be 2m 11s shorter.
Waning Crescent, 10% of the Moon is Illuminated
Today
Waning Crescent
Sep 24
New
Oct 1
First Quarter
Oct 8
Full
Oct 15
Last Quarter

Today's Extremes

State Highs State Lows

Community

WunderPhotos

Upload Photos

1,754,972 photos uploaded!

WunderBlogs® & News

Nearby

Air Quality

  Air Quality AQ Index Pollutant
Yesterday Moderate
PM2.5
Yesterday Good
OZONE
Current Good
PM2.5
Saturday Moderate
PM2.5
Sunday Moderate
OZONE
Monday Moderate
PM2.5
Tuesday Moderate
OZONE
Wednesday Moderate
PM2.5

Snow Depth

Station Depth Elevation
Monitor Pass 0 in 8350 ft
Summit Meadow 0 in 9122 ft
Leavitt Lake 0 in 9400 ft
Adin Mountain 0 in 6200 ft
Leavitt Meadows 0 in 7200 ft

Earthquake Activity

City Distance Mag. Time & Date
Inyokern, California 70 miles 3.1 5:33 PM PDT
2014-09-19
Aguanga, California 160 miles 2.5 1:38 AM PDT
2014-09-19
Corcoran, California 82 miles 2.9 3:59 PM PDT
2014-09-18
Minimum magnitude displayed is 2.5.

Coastal Water Temperatures

Place Temperature
No Stations Reporting

Nearby Weather Stations